Congerville, Illinois
Current Conditions -  °F | °C
As of 9:56 PM on Wednesday 28 Jan 2015 (Local Time) from KBMI Reporting Station
Light Rain Light Rain  
Wind Chill: 22°   Ceiling: Unl
Heat Index: 35°   Visibility: 10mi
Dew Point: 30°   Wind: 29mph
Humidity: 82%   Direction: 180°S
Pressure: 29.85"   Gusts: 36mph
Location:  40.62°N, 89.2°W
Report Text: KBMI 290356Z 18025G31KT 10SM -RA FEW048 02/M01 A2985 RMK AO2 T00161011 UPB35E49RAB49 P0000 PK WND 17031/0355 SLP125
Loading
Personal Weather Stations






























Interactive Weather Map New forecast layout! Learn more

10-Day Weather Forecast

Advertisements
Track Severe Weather on mobile